Time;durP1;ratioP1;P1;durP2;ratioP2;P2;SDS_P1;SDS_P2;PMS_P1;PMS_P2;Temp;Humidity;BMP_temperature;BMP_pressure;BME280_temperature;BME280_humidity;BME280_pressure;Samples;Min_cycle;Max_cycle;Signal;HPM_P1;HPM_P2
2023/09/13 00:00:57;;;;;;;9.10;3.60;;;;;;;;;;4997209;28;20307;-89
2023/09/13 00:03:24;;;;;;;3.90;3.50;;;;;;;;;;4997257;28;20294;-89
2023/09/13 00:05:51;;;;;;;5.13;4.10;;;;;;;;;;4993484;28;20311;-89
2023/09/13 00:08:18;;;;;;;4.05;3.63;;;;;;;;;;4999331;28;20299;-89
2023/09/13 00:10:45;;;;;;;4.22;3.63;;;;;;;;;;4996299;28;20237;-89
2023/09/13 00:16:04;;;;;;;3.90;3.50;;;;;;;;;;4951546;28;20232;-89
2023/09/13 00:18:31;;;;;;;4.10;3.38;;;;;;;;;;4999246;28;20287;-89
2023/09/13 00:21:15;;;;;;;4.10;3.60;;;;;;;;;;4996645;28;20234;-89
2023/09/13 00:23:42;;;;;;;3.97;3.67;;;;;;;;;;4997030;28;20291;-88
2023/09/13 00:26:09;;;;;;;3.85;3.25;;;;;;;;;;4996037;28;20231;-89
2023/09/13 00:28:37;;;;;;;6.07;3.78;;;;;;;;;;4996573;28;20219;-90
2023/09/13 00:31:04;;;;;;;4.97;4.10;;;;;;;;;;4996123;28;20236;-89
2023/09/13 00:33:32;;;;;;;5.93;4.18;;;;;;;;;;4994781;28;20226;-89
2023/09/13 00:35:59;;;;;;;4.45;4.05;;;;;;;;;;4992657;28;20217;-89
2023/09/13 00:38:26;;;;;;;7.28;4.47;;;;;;;;;;5005182;28;20204;-89
2023/09/13 00:40:53;;;;;;;5.03;4.25;;;;;;;;;;5003996;28;20599;-89
2023/09/13 00:43:20;;;;;;;4.55;4.15;;;;;;;;;;4997133;28;20196;-89
2023/09/13 00:45:50;;;;;;;5.15;4.25;;;;;;;;;;4995986;28;20216;-89
2023/09/13 00:48:18;;;;;;;3.83;3.47;;;;;;;;;;4996626;28;20210;-90
2023/09/13 00:50:46;;;;;;;4.45;4.00;;;;;;;;;;4995899;28;20238;-89
2023/09/13 00:53:14;;;;;;;3.38;3.08;;;;;;;;;;4996069;28;20216;-89
2023/09/13 00:55:42;;;;;;;4.30;3.90;;;;;;;;;;4994735;28;20543;-89
2023/09/13 00:58:09;;;;;;;4.18;3.83;;;;;;;;;;4995430;28;20207;-89
2023/09/13 01:00:37;;;;;;;4.30;3.90;;;;;;;;;;4995776;28;20423;-90
2023/09/13 01:03:07;;;;;;;4.32;3.92;;;;;;;;;;4996476;28;20701;-89
2023/09/13 01:05:36;;;;;;;4.30;3.90;;;;;;;;;;4996289;28;20231;-89
2023/09/13 01:08:04;;;;;;;5.43;4.28;;;;;;;;;;4989386;28;20227;-89
2023/09/13 01:10:31;;;;;;;4.10;3.70;;;;;;;;;;4987997;28;20232;-89
2023/09/13 01:12:58;;;;;;;4.22;3.83;;;;;;;;;;4995947;28;20335;-89
2023/09/13 01:15:26;;;;;;;4.10;3.70;;;;;;;;;;4995396;28;20236;-89
2023/09/13 01:17:55;;;;;;;4.43;3.80;;;;;;;;;;4996196;28;20311;-89
2023/09/13 01:20:33;;;;;;;4.05;3.65;;;;;;;;;;4995114;28;20231;-89
2023/09/13 01:23:17;;;;;;;3.60;3.30;;;;;;;;;;4981341;28;20254;-89
2023/09/13 01:26:02;;;;;;;5.80;4.03;;;;;;;;;;4995156;28;20243;-89
2023/09/13 01:28:37;;;;;;;5.20;3.80;;;;;;;;;;4964511;28;20204;-89
2023/09/13 01:31:06;;;;;;;5.97;3.90;;;;;;;;;;4995309;28;20235;-89
2023/09/13 01:33:33;;;;;;;4.32;3.70;;;;;;;;;;4995440;28;20204;-89
2023/09/13 01:36:01;;;;;;;3.80;3.50;;;;;;;;;;4994594;28;20720;-89
2023/09/13 01:38:29;;;;;;;4.50;3.70;;;;;;;;;;5009725;28;20565;-89
2023/09/13 01:40:58;;;;;;;3.85;3.53;;;;;;;;;;5014339;28;20274;-88
2023/09/13 01:43:26;;;;;;;4.30;3.90;;;;;;;;;;5005413;28;20670;-88
2023/09/13 01:45:56;;;;;;;3.85;3.55;;;;;;;;;;4995208;28;20236;-89
2023/09/13 01:48:23;;;;;;;4.43;3.33;;;;;;;;;;4996106;28;20262;-88
2023/09/13 01:50:51;;;;;;;3.88;3.40;;;;;;;;;;4995256;28;20599;-88
2023/09/13 01:53:18;;;;;;;6.13;3.50;;;;;;;;;;4995923;28;20212;-89
2023/09/13 01:55:45;;;;;;;3.67;3.38;;;;;;;;;;4995532;28;20243;-88
2023/09/13 01:58:12;;;;;;;6.35;3.42;;;;;;;;;;4995541;28;20682;-88
2023/09/13 02:00:39;;;;;;;4.15;3.47;;;;;;;;;;4995314;28;20610;-88
2023/09/13 02:03:08;;;;;;;3.40;3.10;;;;;;;;;;4995554;28;20216;-88
2023/09/13 02:05:35;;;;;;;3.95;3.55;;;;;;;;;;4995263;28;20263;-88
2023/09/13 02:08:03;;;;;;;3.75;3.30;;;;;;;;;;4995487;28;20705;-89
2023/09/13 02:10:30;;;;;;;4.03;3.30;;;;;;;;;;4995090;28;20240;-87
2023/09/13 02:12:58;;;;;;;4.70;3.22;;;;;;;;;;4995370;28;20223;-87
2023/09/13 02:15:27;;;;;;;5.20;3.35;;;;;;;;;;4995129;28;20228;-88
2023/09/13 02:17:54;;;;;;;3.45;3.15;;;;;;;;;;4995662;28;20208;-88
2023/09/13 02:20:22;;;;;;;3.92;3.15;;;;;;;;;;4994346;28;20243;-88
2023/09/13 02:22:49;;;;;;;3.53;2.97;;;;;;;;;;4994020;28;20234;-89
2023/09/13 02:25:17;;;;;;;3.45;3.15;;;;;;;;;;4993637;28;20236;-89
2023/09/13 02:27:44;;;;;;;3.13;2.92;;;;;;;;;;4994633;28;20754;-89
2023/09/13 02:30:11;;;;;;;4.07;3.40;;;;;;;;;;4994795;28;20228;-88
2023/09/13 02:32:38;;;;;;;4.55;2.95;;;;;;;;;;4995045;28;20939;-88
2023/09/13 02:35:06;;;;;;;3.05;2.70;;;;;;;;;;4994772;28;20236;-89
2023/09/13 02:37:34;;;;;;;3.63;2.80;;;;;;;;;;4995251;28;20216;-88
2023/09/13 02:40:03;;;;;;;4.00;3.33;;;;;;;;;;4994796;28;20587;-89
2023/09/13 02:42:30;;;;;;;4.05;2.78;;;;;;;;;;4994960;28;20235;-89
2023/09/13 02:44:57;;;;;;;3.40;2.80;;;;;;;;;;4994414;28;20232;-90
2023/09/13 02:47:24;;;;;;;3.72;3.33;;;;;;;;;;4994686;28;20220;-88
2023/09/13 02:49:51;;;;;;;4.22;3.13;;;;;;;;;;4994657;28;20228;-89
2023/09/13 02:52:28;;;;;;;3.47;3.20;;;;;;;;;;4994742;28;20710;-89
2023/09/13 02:55:09;;;;;;;3.58;3.28;;;;;;;;;;4994200;28;20776;-88
2023/09/13 02:57:36;;;;;;;3.60;3.20;;;;;;;;;;4994653;28;20242;-89
2023/09/13 03:00:04;;;;;;;3.72;2.97;;;;;;;;;;4994681;28;20828;-88
2023/09/13 03:02:31;;;;;;;3.42;3.10;;;;;;;;;;4994606;28;20228;-88
2023/09/13 03:04:59;;;;;;;3.60;3.28;;;;;;;;;;4994484;28;20228;-88
2023/09/13 03:07:26;;;;;;;3.85;3.50;;;;;;;;;;4994788;28;20262;-89
2023/09/13 03:09:53;;;;;;;4.90;3.75;;;;;;;;;;4994406;28;20756;-89
2023/09/13 03:12:21;;;;;;;3.15;2.95;;;;;;;;;;4994350;28;20236;-88
2023/09/13 03:14:51;;;;;;;3.60;3.30;;;;;;;;;;4994152;28;20242;-89
2023/09/13 03:17:18;;;;;;;4.53;3.38;;;;;;;;;;4994730;28;20205;-89
2023/09/13 03:19:48;;;;;;;3.42;3.13;;;;;;;;;;4994190;28;20243;-89
2023/09/13 03:22:17;;;;;;;3.97;3.40;;;;;;;;;;4994973;28;20319;-89
2023/09/13 03:24:44;;;;;;;4.80;3.65;;;;;;;;;;4994131;28;20556;-89
2023/09/13 03:27:12;;;;;;;4.57;3.20;;;;;;;;;;4994784;28;20356;-88
2023/09/13 03:29:46;;;;;;;5.00;3.80;;;;;;;;;;4994397;28;20299;-89
2023/09/13 03:32:13;;;;;;;3.75;3.45;;;;;;;;;;4994354;28;20212;-89
2023/09/13 03:34:40;;;;;;;3.53;3.30;;;;;;;;;;4994274;28;20235;-89
2023/09/13 03:37:10;;;;;;;5.25;3.58;;;;;;;;;;4993440;28;20254;-88
2023/09/13 03:39:37;;;;;;;5.63;3.65;;;;;;;;;;4992979;28;20197;-89
2023/09/13 03:42:07;;;;;;;3.97;3.45;;;;;;;;;;4998887;28;20234;-89
2023/09/13 03:44:36;;;;;;;4.32;3.55;;;;;;;;;;5003563;28;20215;-89
2023/09/13 03:47:08;;;;;;;5.07;3.13;;;;;;;;;;4993760;28;20232;-90
2023/09/13 03:52:37;;;;;;;4.03;3.67;;;;;;;;;;4997762;28;20239;-88
2023/09/13 03:55:05;;;;;;;5.03;3.80;;;;;;;;;;5012496;28;20231;-89
2023/09/13 03:57:32;;;;;;;4.03;3.63;;;;;;;;;;4994018;28;20267;-89
2023/09/13 03:59:59;;;;;;;4.78;4.38;;;;;;;;;;4992636;28;20243;-88
2023/09/13 04:02:28;;;;;;;4.05;3.63;;;;;;;;;;4993950;28;20713;-89
2023/09/13 04:04:55;;;;;;;4.18;3.78;;;;;;;;;;4995530;28;20243;-88
2023/09/13 04:07:22;;;;;;;4.35;3.92;;;;;;;;;;4997425;28;20275;-89
2023/09/13 04:09:49;;;;;;;5.70;3.83;;;;;;;;;;4997222;28;20255;-89
2023/09/13 04:12:16;;;;;;;3.80;3.50;;;;;;;;;;4997158;28;20227;-89
2023/09/13 04:14:43;;;;;;;4.85;3.90;;;;;;;;;;5003461;28;20235;-91
2023/09/13 04:17:10;;;;;;;4.18;3.55;;;;;;;;;;4998659;28;20212;-90
2023/09/13 04:19:39;;;;;;;3.67;3.38;;;;;;;;;;4998215;28;20243;-90
2023/09/13 04:22:08;;;;;;;4.05;3.72;;;;;;;;;;4998748;28;20240;-91
2023/09/13 04:24:35;;;;;;;4.25;3.60;;;;;;;;;;4998072;28;20617;-90
2023/09/13 04:27:03;;;;;;;4.72;3.45;;;;;;;;;;4998018;28;20208;-90
2023/09/13 04:29:43;;;;;;;;;;;;;;;;;;;;;
2023/09/13 04:32:10;;;;;;;4.10;3.70;;;;;;;;;;5030248;28;20230;-90
2023/09/13 04:34:46;;;;;;;5.72;4.03;;;;;;;;;;5012881;28;20956;-90
2023/09/13 04:37:21;;;;;;;4.50;4.03;;;;;;;;;;5002046;28;20208;-91
2023/09/13 04:39:48;;;;;;;4.82;4.40;;;;;;;;;;4997854;28;20251;-89
2023/09/13 04:42:17;;;;;;;4.78;4.28;;;;;;;;;;4996705;28;20748;-87
2023/09/13 04:44:45;;;;;;;5.35;4.32;;;;;;;;;;4996347;28;20239;-86
2023/09/13 04:47:12;;;;;;;5.78;5.18;;;;;;;;;;4997263;28;20259;-87
2023/09/13 04:49:39;;;;;;;7.85;4.70;;;;;;;;;;4996363;28;20250;-86
2023/09/13 04:52:09;;;;;;;4.88;4.45;;;;;;;;;;4996651;28;20319;-86
2023/09/13 04:54:37;;;;;;;6.60;5.05;;;;;;;;;;4994918;28;20601;-85
2023/09/13 04:57:04;;;;;;;5.25;4.75;;;;;;;;;;4991590;28;20695;-83
2023/09/13 04:59:41;;;;;;;7.72;4.88;;;;;;;;;;4995046;28;20215;-84
2023/09/13 05:02:08;;;;;;;5.28;4.78;;;;;;;;;;4995646;28;20663;-84
2023/09/13 05:04:35;;;;;;;6.05;4.60;;;;;;;;;;4995303;28;20212;-85
2023/09/13 05:07:03;;;;;;;6.53;4.55;;;;;;;;;;4995149;28;20203;-84
2023/09/13 05:09:31;;;;;;;6.82;5.15;;;;;;;;;;4995522;28;20274;-83
2023/09/13 05:11:58;;;;;;;5.40;4.90;;;;;;;;;;4995001;28;20231;-83
2023/09/13 05:14:25;;;;;;;6.10;4.70;;;;;;;;;;4994229;28;20196;-84
2023/09/13 05:16:52;;;;;;;5.75;5.25;;;;;;;;;;4994005;28;20227;-83
2023/09/13 05:19:19;;;;;;;6.03;5.43;;;;;;;;;;4994905;28;20572;-84
2023/09/13 05:21:46;;;;;;;6.80;5.53;;;;;;;;;;4995459;28;20224;-84
2023/09/13 05:24:13;;;;;;;7.10;5.80;;;;;;;;;;4995862;28;20219;-84
2023/09/13 05:26:42;;;;;;;6.18;5.57;;;;;;;;;;4995030;28;20236;-85
2023/09/13 05:29:09;;;;;;;6.93;5.65;;;;;;;;;;4995563;28;20235;-85
2023/09/13 05:31:36;;;;;;;7.03;5.05;;;;;;;;;;4994555;28;20331;-84
2023/09/13 05:34:03;;;;;;;5.25;4.75;;;;;;;;;;4995348;28;20216;-84
2023/09/13 05:36:30;;;;;;;5.80;4.82;;;;;;;;;;4994577;28;20612;-84
2023/09/13 05:38:57;;;;;;;9.35;4.72;;;;;;;;;;4995097;28;20211;-84
2023/09/13 05:41:24;;;;;;;5.93;5.32;;;;;;;;;;4994615;28;20244;-84
2023/09/13 05:43:53;;;;;;;4.82;4.43;;;;;;;;;;4995060;28;20212;-84
2023/09/13 05:46:20;;;;;;;5.10;4.60;;;;;;;;;;4994078;28;20236;-84
2023/09/13 05:48:47;;;;;;;5.10;4.60;;;;;;;;;;4995152;28;20242;-85
2023/09/13 05:51:14;;;;;;;7.57;5.28;;;;;;;;;;4994671;28;20737;-85
2023/09/13 05:53:41;;;;;;;6.97;4.88;;;;;;;;;;4995288;28;20270;-85
2023/09/13 05:56:11;;;;;;;5.00;4.50;;;;;;;;;;4994441;28;20242;-85
2023/09/13 05:58:38;;;;;;;4.80;4.40;;;;;;;;;;4995143;28;20216;-85
2023/09/13 06:01:06;;;;;;;4.50;4.13;;;;;;;;;;4994523;28;20243;-85
2023/09/13 06:03:33;;;;;;;5.35;4.55;;;;;;;;;;4994632;28;20204;-85
2023/09/13 06:06:01;;;;;;;4.72;4.15;;;;;;;;;;4990385;28;20669;-85
2023/09/13 06:08:28;;;;;;;4.55;4.15;;;;;;;;;;4994605;28;20235;-85
2023/09/13 06:10:55;;;;;;;4.28;3.88;;;;;;;;;;4986491;28;20656;-84
2023/09/13 06:13:22;;;;;;;4.15;3.65;;;;;;;;;;4991680;28;20226;-86
2023/09/13 06:15:49;;;;;;;6.07;3.95;;;;;;;;;;4993794;28;20223;-85
2023/09/13 06:18:17;;;;;;;5.95;3.67;;;;;;;;;;4991257;28;20219;-85
2023/09/13 06:20:44;;;;;;;5.32;4.28;;;;;;;;;;5012320;28;20322;-85
2023/09/13 06:23:32;;;;;;;4.88;3.90;;;;;;;;;;5013120;28;20210;-84
2023/09/13 06:25:59;;;;;;;4.38;4.00;;;;;;;;;;5003447;28;20227;-85
2023/09/13 06:28:27;;;;;;;4.38;3.97;;;;;;;;;;5006620;28;20254;-84
2023/09/13 06:30:54;;;;;;;4.40;4.00;;;;;;;;;;5006300;28;20224;-84
2023/09/13 06:33:22;;;;;;;4.57;4.18;;;;;;;;;;5012020;28;20208;-84
2023/09/13 06:35:50;;;;;;;4.97;4.10;;;;;;;;;;5012822;28;20223;-84
2023/09/13 06:38:17;;;;;;;4.82;4.18;;;;;;;;;;5008434;28;20249;-84
2023/09/13 06:40:47;;;;;;;4.55;4.15;;;;;;;;;;5012599;28;20233;-84
2023/09/13 06:43:15;;;;;;;5.50;4.38;;;;;;;;;;5004185;28;20211;-85
2023/09/13 06:45:43;;;;;;;4.57;3.80;;;;;;;;;;5012492;28;20237;-85
2023/09/13 06:48:11;;;;;;;7.03;4.47;;;;;;;;;;5008704;28;20231;-85
2023/09/13 06:50:39;;;;;;;4.70;3.92;;;;;;;;;;4997578;28;20281;-85
2023/09/13 06:53:06;;;;;;;4.25;3.85;;;;;;;;;;5012979;28;20211;-85
2023/09/13 06:55:34;;;;;;;4.40;4.00;;;;;;;;;;4995712;28;20600;-85
2023/09/13 06:58:02;;;;;;;4.78;3.70;;;;;;;;;;5010988;28;20222;-85
2023/09/13 07:00:30;;;;;;;4.50;4.10;;;;;;;;;;5011999;28;20238;-85
2023/09/13 07:02:57;;;;;;;5.05;4.07;;;;;;;;;;5013129;28;20231;-85
2023/09/13 07:05:24;;;;;;;5.20;4.20;;;;;;;;;;5011945;28;20235;-85
2023/09/13 07:07:52;;;;;;;6.88;3.92;;;;;;;;;;5012802;28;20214;-85
2023/09/13 07:10:22;;;;;;;5.00;4.25;;;;;;;;;;5007595;28;20231;-84
2023/09/13 07:12:49;;;;;;;5.03;4.50;;;;;;;;;;4998165;28;20722;-85
2023/09/13 07:15:18;;;;;;;5.03;4.13;;;;;;;;;;4991891;28;20246;-84
2023/09/13 07:17:45;;;;;;;5.50;3.78;;;;;;;;;;4997073;28;20207;-85
2023/09/13 07:20:13;;;;;;;4.30;3.90;;;;;;;;;;5010768;28;20234;-85
2023/09/13 07:22:40;;;;;;;4.20;3.88;;;;;;;;;;5008230;28;20223;-85
2023/09/13 07:25:09;;;;;;;4.22;3.88;;;;;;;;;;4994471;28;20236;-86
2023/09/13 07:27:36;;;;;;;4.70;4.30;;;;;;;;;;5011688;28;20207;-84
2023/09/13 07:30:08;;;;;;;4.28;3.88;;;;;;;;;;5011705;28;20235;-85
2023/09/13 07:32:35;;;;;;;5.72;4.10;;;;;;;;;;5012136;28;20219;-85
2023/09/13 07:35:03;;;;;;;4.82;4.20;;;;;;;;;;5005780;28;20236;-85
2023/09/13 07:37:30;;;;;;;6.28;4.57;;;;;;;;;;5009402;28;20212;-85
2023/09/13 07:39:58;;;;;;;4.22;3.90;;;;;;;;;;5010184;28;20234;-86
2023/09/13 07:42:26;;;;;;;4.50;4.13;;;;;;;;;;5007524;28;20372;-85
2023/09/13 07:44:53;;;;;;;5.40;4.00;;;;;;;;;;4997287;28;20240;-86
2023/09/13 07:47:20;;;;;;;4.70;4.30;;;;;;;;;;4997633;28;20215;-83
2023/09/13 07:49:47;;;;;;;4.82;4.43;;;;;;;;;;5009653;28;20250;-83
2023/09/13 07:52:14;;;;;;;5.03;4.57;;;;;;;;;;4999600;28;20232;-87
2023/09/13 07:54:43;;;;;;;4.15;3.50;;;;;;;;;;4999644;28;20242;-84
2023/09/13 07:57:10;;;;;;;5.25;4.75;;;;;;;;;;5015382;28;20677;-83
2023/09/13 07:59:38;;;;;;;5.72;5.00;;;;;;;;;;5011784;28;20667;-84
2023/09/13 08:02:05;;;;;;;4.22;3.83;;;;;;;;;;4998884;28;20587;-82
2023/09/13 08:04:32;;;;;;;5.60;4.70;;;;;;;;;;4998408;28;20215;-83
2023/09/13 08:07:00;;;;;;;5.72;4.38;;;;;;;;;;5000965;28;20806;-83
2023/09/13 08:09:27;;;;;;;5.63;4.40;;;;;;;;;;5003014;28;20302;-83
2023/09/13 08:11:54;;;;;;;7.28;4.68;;;;;;;;;;4998212;28;20303;-87
2023/09/13 08:14:21;;;;;;;7.25;5.00;;;;;;;;;;4997239;28;20235;-90
2023/09/13 08:16:50;;;;;;;6.60;4.70;;;;;;;;;;5015860;28;20302;-86
2023/09/13 08:19:17;;;;;;;5.28;4.65;;;;;;;;;;5015828;28;20203;-86
2023/09/13 08:21:44;;;;;;;4.20;3.85;;;;;;;;;;5015822;28;20231;-86
2023/09/13 08:24:11;;;;;;;7.15;4.63;;;;;;;;;;5008501;28;20199;-86
2023/09/13 08:26:38;;;;;;;5.63;4.78;;;;;;;;;;5012053;28;20236;-86
2023/09/13 08:29:05;;;;;;;5.07;4.38;;;;;;;;;;5003218;28;20228;-86
2023/09/13 08:31:32;;;;;;;5.20;4.50;;;;;;;;;;5013230;28;20689;-86
2023/09/13 08:34:01;;;;;;;5.72;4.80;;;;;;;;;;5009611;28;20203;-86
2023/09/13 08:36:28;;;;;;;5.45;4.95;;;;;;;;;;5013548;28;20243;-87
2023/09/13 08:38:55;;;;;;;5.22;4.72;;;;;;;;;;5016124;28;20204;-86
2023/09/13 08:41:22;;;;;;;6.88;4.93;;;;;;;;;;5006333;28;20239;-86
2023/09/13 08:43:51;;;;;;;4.75;4.30;;;;;;;;;;5009068;28;20203;-86
2023/09/13 08:46:18;;;;;;;5.47;4.97;;;;;;;;;;5014552;28;20334;-86
2023/09/13 08:48:47;;;;;;;4.40;4.00;;;;;;;;;;5008423;28;20736;-86
2023/09/13 08:51:15;;;;;;;5.20;4.72;;;;;;;;;;5014251;28;20238;-86
2023/09/13 08:53:42;;;;;;;4.70;4.22;;;;;;;;;;5015642;28;20208;-87
2023/09/13 08:56:10;;;;;;;4.90;4.43;;;;;;;;;;5015141;28;20220;-86
2023/09/13 08:58:37;;;;;;;5.55;4.68;;;;;;;;;;5015483;28;20215;-86
2023/09/13 09:01:05;;;;;;;6.57;4.47;;;;;;;;;;5006839;28;20237;-86
2023/09/13 09:03:34;;;;;;;8.70;4.38;;;;;;;;;;5015761;28;20266;-86
2023/09/13 09:06:03;;;;;;;5.22;4.13;;;;;;;;;;5007035;28;20239;-86
2023/09/13 09:08:31;;;;;;;6.60;4.35;;;;;;;;;;5014905;28;20204;-86
2023/09/13 09:11:00;;;;;;;6.57;4.95;;;;;;;;;;5015134;28;20223;-87
2023/09/13 09:13:29;;;;;;;5.50;4.47;;;;;;;;;;5015018;28;20686;-87
2023/09/13 09:15:57;;;;;;;5.93;4.65;;;;;;;;;;5014784;28;20228;-86
2023/09/13 09:18:25;;;;;;;5.63;4.15;;;;;;;;;;5014910;28;20214;-86
2023/09/13 09:20:53;;;;;;;4.65;4.20;;;;;;;;;;5014894;28;20231;-86
2023/09/13 09:23:20;;;;;;;5.80;4.70;;;;;;;;;;5004474;28;20215;-86
2023/09/13 09:25:51;;;;;;;5.03;4.40;;;;;;;;;;5004371;28;20221;-86
2023/09/13 09:28:18;;;;;;;7.07;4.55;;;;;;;;;;5005613;28;20220;-87
2023/09/13 09:30:45;;;;;;;6.88;4.85;;;;;;;;;;5006246;28;20231;-86
2023/09/13 09:33:13;;;;;;;4.38;3.97;;;;;;;;;;5014245;28;20203;-86
2023/09/13 09:35:40;;;;;;;6.07;4.50;;;;;;;;;;5012369;28;20227;-86
2023/09/13 09:38:21;;;;;;;5.07;4.40;;;;;;;;;;5012516;28;20208;-86
2023/09/13 09:40:50;;;;;;;6.57;4.80;;;;;;;;;;5008461;28;20235;-86
2023/09/13 09:43:17;;;;;;;5.80;4.10;;;;;;;;;;5002293;28;20215;-87
2023/09/13 09:45:44;;;;;;;5.68;4.13;;;;;;;;;;5009066;28;20709;-87
2023/09/13 09:48:13;;;;;;;5.32;4.70;;;;;;;;;;5002532;28;20212;-87
2023/09/13 09:50:43;;;;;;;5.70;4.35;;;;;;;;;;5012899;28;20270;-86
2023/09/13 09:53:11;;;;;;;4.97;3.63;;;;;;;;;;5014105;28;20203;-87
2023/09/13 09:55:38;;;;;;;4.53;4.07;;;;;;;;;;5013552;28;20242;-87
2023/09/13 09:58:06;;;;;;;4.93;4.05;;;;;;;;;;5013876;28;20254;-86
2023/09/13 10:00:44;;;;;;;4.78;4.20;;;;;;;;;;5004754;28;20234;-87
2023/09/13 10:03:17;;;;;;;4.43;3.60;;;;;;;;;;5012747;28;20207;-87
2023/09/13 10:05:51;;;;;;;5.13;3.70;;;;;;;;;;4997349;28;20292;-86
2023/09/13 10:08:19;;;;;;;4.38;3.97;;;;;;;;;;5013596;28;20578;-87
2023/09/13 10:10:46;;;;;;;5.68;4.32;;;;;;;;;;4994223;28;20236;-86
2023/09/13 10:13:16;;;;;;;4.05;3.65;;;;;;;;;;5025125;23;20206;-90
2023/09/13 10:15:43;;;;;;;4.45;3.85;;;;;;;;;;5020563;28;20254;-89
2023/09/13 10:18:13;;;;;;;4.75;4.35;;;;;;;;;;5013084;28;20294;-89
2023/09/13 10:20:43;;;;;;;6.90;3.78;;;;;;;;;;5016336;28;20236;-89
2023/09/13 10:23:13;;;;;;;5.50;4.30;;;;;;;;;;5013551;28;20214;-89
2023/09/13 10:25:42;;;;;;;4.13;3.70;;;;;;;;;;5020939;28;20321;-89
2023/09/13 10:28:10;;;;;;;4.60;4.18;;;;;;;;;;5022480;28;20211;-89
2023/09/13 10:30:39;;;;;;;5.22;3.63;;;;;;;;;;5013328;28;20237;-89
2023/09/13 10:33:08;;;;;;;6.72;3.97;;;;;;;;;;5013654;28;20211;-89
2023/09/13 10:35:40;;;;;;;6.30;3.85;;;;;;;;;;5012970;28;20277;-89
2023/09/13 10:38:13;;;;;;;4.88;4.38;;;;;;;;;;5021647;28;20242;-89
2023/09/13 10:40:43;;;;;;;7.25;3.90;;;;;;;;;;5022119;28;20235;-89
2023/09/13 10:43:10;;;;;;;3.90;3.55;;;;;;;;;;5028300;28;20305;-89
2023/09/13 10:45:41;;;;;;;5.03;3.88;;;;;;;;;;5031886;28;20628;-89
2023/09/13 10:48:10;;;;;;;4.10;3.38;;;;;;;;;;5026119;28;20258;-89
2023/09/13 10:50:38;;;;;;;4.07;3.55;;;;;;;;;;5042100;28;20249;-90
2023/09/13 10:53:05;;;;;;;3.70;3.40;;;;;;;;;;5040362;28;20204;-89
2023/09/13 10:55:34;;;;;;;3.80;3.40;;;;;;;;;;5034418;28;20215;-89
2023/09/13 10:58:03;;;;;;;4.45;3.95;;;;;;;;;;5034909;28;20199;-90
2023/09/13 11:00:32;;;;;;;3.75;3.35;;;;;;;;;;5042565;28;20227;-89
2023/09/13 11:02:59;;;;;;;4.90;3.53;;;;;;;;;;5051801;28;20202;-89
2023/09/13 11:05:28;;;;;;;4.25;3.85;;;;;;;;;;5047038;28;20258;-89
2023/09/13 11:07:55;;;;;;;3.60;3.30;;;;;;;;;;5034704;28;20210;-89
2023/09/13 11:10:22;;;;;;;3.72;2.85;;;;;;;;;;5039103;28;20245;-89
2023/09/13 11:12:50;;;;;;;3.75;3.30;;;;;;;;;;5021745;28;20226;-89
2023/09/13 11:15:20;;;;;;;3.50;3.20;;;;;;;;;;5015952;28;20254;-90
2023/09/13 11:17:48;;;;;;;3.53;2.88;;;;;;;;;;5016202;28;20567;-90
2023/09/13 11:20:21;;;;;;;2.97;2.75;;;;;;;;;;5016967;28;20231;-90
2023/09/13 11:23:03;;;;;;;3.72;3.08;;;;;;;;;;5024754;28;20199;-89
2023/09/13 11:25:37;;;;;;;3.10;2.85;;;;;;;;;;5016828;28;20231;-90
2023/09/13 11:28:05;;;;;;;3.33;2.80;;;;;;;;;;5015570;28;20207;-90
2023/09/13 11:30:48;;;;;;;3.40;3.08;;;;;;;;;;5023452;28;20242;-90
2023/09/13 11:33:15;;;;;;;3.25;3.00;;;;;;;;;;5023127;28;20246;-88
2023/09/13 11:35:43;;;;;;;2.83;2.60;;;;;;;;;;5038392;28;20234;-90
2023/09/13 11:38:12;;;;;;;3.28;2.97;;;;;;;;;;5035250;28;20214;-90
2023/09/13 11:40:42;;;;;;;3.55;3.25;;;;;;;;;;5035269;28;20262;-91
2023/09/13 11:43:11;;;;;;;3.80;3.13;;;;;;;;;;5029689;28;20585;-91
2023/09/13 11:45:40;;;;;;;3.20;2.65;;;;;;;;;;5023170;28;20234;-91
2023/09/13 11:48:08;;;;;;;2.60;2.40;;;;;;;;;;5021646;28;20214;-89
2023/09/13 11:50:43;;;;;;;2.50;2.30;;;;;;;;;;5032434;28;20235;-91
2023/09/13 11:53:15;;;;;;;3.25;2.65;;;;;;;;;;5030453;28;20206;-90
2023/09/13 11:55:45;;;;;;;2.80;2.55;;;;;;;;;;5017377;28;20227;-89
2023/09/13 11:58:16;;;;;;;3.28;2.78;;;;;;;;;;5027895;28;20587;-91
2023/09/13 12:00:43;;;;;;;2.63;2.42;;;;;;;;;;5034482;28;20234;-91
2023/09/13 12:03:10;;;;;;;3.03;2.72;;;;;;;;;;5016118;28;20212;-90
2023/09/13 12:05:39;;;;;;;2.80;2.60;;;;;;;;;;5014738;28;20274;-91
2023/09/13 12:08:22;;;;;;;3.20;2.90;;;;;;;;;;5014644;28;20203;-91
2023/09/13 12:10:50;;;;;;;3.45;2.70;;;;;;;;;;5014567;28;20258;-91
2023/09/13 12:13:17;;;;;;;3.20;2.90;;;;;;;;;;5022052;28;20243;-91
2023/09/13 12:16:00;;;;;;;2.75;2.55;;;;;;;;;;5018540;28;20231;-90
2023/09/13 12:18:28;;;;;;;5.22;3.15;;;;;;;;;;5034373;28;20210;-91
2023/09/13 12:20:58;;;;;;;3.08;2.80;;;;;;;;;;5015428;28;20582;-91
2023/09/13 12:23:26;;;;;;;3.00;2.70;;;;;;;;;;5014738;28;20227;-91
2023/09/13 12:25:53;;;;;;;4.32;2.90;;;;;;;;;;5012941;28;20516;-91
2023/09/13 12:28:27;;;;;;;3.33;3.03;;;;;;;;;;5029628;28;20199;-91
2023/09/13 12:30:55;;;;;;;3.30;2.95;;;;;;;;;;5033744;28;20219;-90
2023/09/13 12:33:23;;;;;;;3.70;3.40;;;;;;;;;;5034190;28;20239;-91
2023/09/13 12:35:50;;;;;;;3.42;3.13;;;;;;;;;;5034099;28;20317;-91
2023/09/13 12:38:19;;;;;;;3.53;3.22;;;;;;;;;;5033723;28;20210;-91
2023/09/13 12:40:54;;;;;;;3.47;3.10;;;;;;;;;;5033526;28;20226;-90
2023/09/13 12:43:21;;;;;;;4.03;2.78;;;;;;;;;;5035112;28;20261;-91
2023/09/13 12:45:49;;;;;;;3.33;2.80;;;;;;;;;;5030483;28;20804;-91
2023/09/13 12:48:16;;;;;;;2.80;2.60;;;;;;;;;;5014370;28;20215;-92
2023/09/13 12:50:44;;;;;;;3.28;2.92;;;;;;;;;;5014281;28;20701;-91
2023/09/13 12:53:11;;;;;;;5.10;2.70;;;;;;;;;;5020239;28;20692;-91
2023/09/13 12:55:39;;;;;;;2.80;2.60;;;;;;;;;;5024228;28;20233;-90
2023/09/13 12:58:08;;;;;;;3.08;2.38;;;;;;;;;;5010096;28;20227;-91
2023/09/13 13:00:49;;;;;;;3.08;2.55;;;;;;;;;;5014116;28;20238;-90
2023/09/13 13:03:16;;;;;;;2.88;2.67;;;;;;;;;;5028472;28;20222;-91
2023/09/13 13:05:45;;;;;;;2.45;2.22;;;;;;;;;;5023736;28;20235;-91
2023/09/13 13:08:12;;;;;;;2.58;2.38;;;;;;;;;;5011723;28;20212;-90
2023/09/13 13:10:55;;;;;;;3.55;2.17;;;;;;;;;;5009824;28;20721;-91
2023/09/13 13:13:24;;;;;;;2.55;2.35;;;;;;;;;;5010732;28;20269;-90
2023/09/13 13:15:51;;;;;;;2.60;2.40;;;;;;;;;;5008904;28;20242;-91
2023/09/13 13:18:18;;;;;;;2.30;2.17;;;;;;;;;;5005850;28;20245;-90
2023/09/13 13:20:47;;;;;;;2.60;2.40;;;;;;;;;;5010740;28;20227;-90
2023/09/13 13:23:14;;;;;;;2.40;2.03;;;;;;;;;;5013129;28;20277;-90
2023/09/13 13:25:42;;;;;;;3.05;2.20;;;;;;;;;;5022828;28;20239;-90
2023/09/13 13:30:22;;;;;;;2.50;2.30;;;;;;;;;;5064396;28;20570;-86
2023/09/13 13:32:49;;;;;;;2.30;2.17;;;;;;;;;;5034191;22;20219;-90
2023/09/13 13:35:17;;;;;;;3.38;2.05;;;;;;;;;;4999860;28;20231;-90
2023/09/13 13:37:47;;;;;;;2.30;2.10;;;;;;;;;;4990241;28;20216;-90
2023/09/13 13:40:16;;;;;;;3.90;2.30;;;;;;;;;;4987716;28;20720;-90
2023/09/13 13:42:43;;;;;;;3.90;2.40;;;;;;;;;;4987940;28;20235;-89
2023/09/13 13:45:11;;;;;;;4.40;2.70;;;;;;;;;;5029925;28;20235;-90
2023/09/13 13:47:39;;;;;;;3.03;2.20;;;;;;;;;;5031412;28;20230;-87
2023/09/13 13:50:07;;;;;;;2.45;2.20;;;;;;;;;;4994901;28;20239;-87
2023/09/13 13:52:34;;;;;;;2.40;2.00;;;;;;;;;;4988633;28;20238;-89
2023/09/13 13:55:01;;;;;;;3.45;2.00;;;;;;;;;;5008551;28;20225;-85
2023/09/13 13:57:28;;;;;;;2.47;2.00;;;;;;;;;;5047198;28;20224;-87
2023/09/13 13:59:55;;;;;;;3.70;2.30;;;;;;;;;;5038748;28;20704;-89
2023/09/13 14:02:22;;;;;;;1.73;1.63;;;;;;;;;;5022968;28;20221;-87
2023/09/13 14:04:50;;;;;;;2.03;1.92;;;;;;;;;;5001893;28;20232;-86
2023/09/13 14:07:17;;;;;;;2.40;2.20;;;;;;;;;;4987737;28;20204;-88
2023/09/13 14:09:44;;;;;;;1.90;1.80;;;;;;;;;;5038727;28;20258;-88
2023/09/13 14:12:11;;;;;;;2.63;2.42;;;;;;;;;;5030862;28;20220;-87
2023/09/13 14:14:38;;;;;;;1.98;1.85;;;;;;;;;;5031028;28;21077;-89
2023/09/13 14:17:06;;;;;;;2.30;2.10;;;;;;;;;;5017212;28;20201;-86
2023/09/13 14:19:33;;;;;;;3.08;2.30;;;;;;;;;;5005675;28;20215;-86
2023/09/13 14:22:03;;;;;;;2.20;2.10;;;;;;;;;;5029826;28;20236;-88
2023/09/13 14:24:30;;;;;;;2.35;2.15;;;;;;;;;;5069917;28;20208;-89
2023/09/13 14:26:57;;;;;;;2.60;2.38;;;;;;;;;;5005024;28;20316;-88
2023/09/13 14:29:24;;;;;;;2.70;2.40;;;;;;;;;;5047864;28;20227;-87
2023/09/13 14:31:56;;;;;;;2.10;1.83;;;;;;;;;;5013508;28;20236;-87
2023/09/13 14:34:24;;;;;;;2.50;2.30;;;;;;;;;;5048461;28;20257;-88
2023/09/13 14:36:51;;;;;;;2.40;2.22;;;;;;;;;;5001300;28;20200;-87
2023/09/13 14:39:19;;;;;;;2.40;2.20;;;;;;;;;;5036028;28;20211;-88
2023/09/13 14:41:51;;;;;;;2.10;2.00;;;;;;;;;;4976330;28;20236;-87
2023/09/13 14:44:18;;;;;;;2.20;2.10;;;;;;;;;;5004314;28;20565;-87
2023/09/13 14:46:45;;;;;;;2.63;2.42;;;;;;;;;;5032974;28;20205;-88
2023/09/13 14:49:19;;;;;;;2.47;2.28;;;;;;;;;;5033272;28;20225;-88
2023/09/13 14:51:46;;;;;;;2.38;2.13;;;;;;;;;;5025574;28;20229;-89
2023/09/13 14:54:13;;;;;;;2.88;2.65;;;;;;;;;;5022300;28;20228;-90
2023/09/13 14:56:44;;;;;;;2.33;2.13;;;;;;;;;;4984854;28;20623;-87
2023/09/13 14:59:11;;;;;;;3.08;2.17;;;;;;;;;;5021149;28;20208;-88